sensor_id;sensor_type;location;lat;lon;timestamp;P1;durP1;ratioP1;P2;durP2;ratioP2
8413;SDS011;4244;48.684;9.028;2023-09-12T00:00:35;12.90;;;11.70;;
8413;SDS011;4244;48.684;9.028;2023-09-12T00:03:00;14.60;;;13.10;;
8413;SDS011;4244;48.684;9.028;2023-09-12T00:05:26;12.67;;;11.50;;
8413;SDS011;4244;48.684;9.028;2023-09-12T00:07:52;12.47;;;11.13;;
8413;SDS011;4244;48.684;9.028;2023-09-12T00:10:18;12.07;;;11.17;;
8413;SDS011;4244;48.684;9.028;2023-09-12T00:12:44;12.03;;;10.97;;
8413;SDS011;4244;48.684;9.028;2023-09-12T00:15:10;13.30;;;12.00;;
8413;SDS011;4244;48.684;9.028;2023-09-12T00:17:36;13.20;;;12.00;;
8413;SDS011;4244;48.684;9.028;2023-09-12T00:20:01;13.37;;;11.80;;
8413;SDS011;4244;48.684;9.028;2023-09-12T00:22:29;14.20;;;12.17;;
8413;SDS011;4244;48.684;9.028;2023-09-12T00:24:54;14.03;;;12.40;;
8413;SDS011;4244;48.684;9.028;2023-09-12T00:27:20;12.87;;;11.70;;
8413;SDS011;4244;48.684;9.028;2023-09-12T00:29:45;13.93;;;12.73;;
8413;SDS011;4244;48.684;9.028;2023-09-12T00:32:11;13.27;;;12.10;;
8413;SDS011;4244;48.684;9.028;2023-09-12T00:34:36;12.53;;;11.23;;
8413;SDS011;4244;48.684;9.028;2023-09-12T00:37:02;13.30;;;12.10;;
8413;SDS011;4244;48.684;9.028;2023-09-12T00:39:28;12.33;;;11.27;;
8413;SDS011;4244;48.684;9.028;2023-09-12T00:41:53;13.80;;;12.37;;
8413;SDS011;4244;48.684;9.028;2023-09-12T00:44:19;12.67;;;11.47;;
8413;SDS011;4244;48.684;9.028;2023-09-12T00:46:45;12.63;;;11.53;;
8413;SDS011;4244;48.684;9.028;2023-09-12T00:49:11;12.63;;;11.63;;
8413;SDS011;4244;48.684;9.028;2023-09-12T00:51:37;13.17;;;11.87;;
8413;SDS011;4244;48.684;9.028;2023-09-12T00:54:03;12.90;;;11.80;;
8413;SDS011;4244;48.684;9.028;2023-09-12T00:56:29;11.97;;;10.87;;
8413;SDS011;4244;48.684;9.028;2023-09-12T00:58:55;14.17;;;12.67;;
8413;SDS011;4244;48.684;9.028;2023-09-12T01:01:20;12.33;;;11.13;;
8413;SDS011;4244;48.684;9.028;2023-09-12T01:03:46;12.10;;;11.10;;
8413;SDS011;4244;48.684;9.028;2023-09-12T01:06:12;12.30;;;11.30;;
8413;SDS011;4244;48.684;9.028;2023-09-12T01:08:37;12.27;;;11.03;;
8413;SDS011;4244;48.684;9.028;2023-09-12T01:11:03;13.37;;;11.83;;
8413;SDS011;4244;48.684;9.028;2023-09-12T01:13:29;12.70;;;11.50;;
8413;SDS011;4244;48.684;9.028;2023-09-12T01:15:54;13.37;;;11.70;;
8413;SDS011;4244;48.684;9.028;2023-09-12T01:18:20;14.20;;;12.70;;
8413;SDS011;4244;48.684;9.028;2023-09-12T01:20:56;12.47;;;11.47;;
8413;SDS011;4244;48.684;9.028;2023-09-12T01:29:07;13.43;;;12.23;;
8413;SDS011;4244;48.684;9.028;2023-09-12T01:31:33;13.33;;;12.13;;
8413;SDS011;4244;48.684;9.028;2023-09-12T01:34:08;12.23;;;11.17;;
8413;SDS011;4244;48.684;9.028;2023-09-12T01:36:35;11.63;;;10.53;;
8413;SDS011;4244;48.684;9.028;2023-09-12T01:39:00;13.57;;;12.27;;
8413;SDS011;4244;48.684;9.028;2023-09-12T01:41:26;13.17;;;11.10;;
8413;SDS011;4244;48.684;9.028;2023-09-12T01:43:52;12.17;;;11.00;;
8413;SDS011;4244;48.684;9.028;2023-09-12T01:46:19;13.20;;;11.90;;
8413;SDS011;4244;48.684;9.028;2023-09-12T01:48:46;12.90;;;11.77;;
8413;SDS011;4244;48.684;9.028;2023-09-12T01:51:16;12.93;;;11.63;;
8413;SDS011;4244;48.684;9.028;2023-09-12T01:53:42;13.70;;;12.53;;
8413;SDS011;4244;48.684;9.028;2023-09-12T01:56:08;12.27;;;11.07;;
8413;SDS011;4244;48.684;9.028;2023-09-12T01:58:34;13.43;;;12.13;;
8413;SDS011;4244;48.684;9.028;2023-09-12T02:01:00;11.93;;;10.93;;
8413;SDS011;4244;48.684;9.028;2023-09-12T02:03:26;13.50;;;12.30;;
8413;SDS011;4244;48.684;9.028;2023-09-12T02:05:51;12.57;;;11.40;;
8413;SDS011;4244;48.684;9.028;2023-09-12T02:08:17;12.63;;;11.50;;
8413;SDS011;4244;48.684;9.028;2023-09-12T02:10:43;12.43;;;11.33;;
8413;SDS011;4244;48.684;9.028;2023-09-12T02:13:08;13.10;;;11.10;;
8413;SDS011;4244;48.684;9.028;2023-09-12T02:15:34;12.63;;;11.43;;
8413;SDS011;4244;48.684;9.028;2023-09-12T02:17:59;12.30;;;11.30;;
8413;SDS011;4244;48.684;9.028;2023-09-12T02:20:25;12.27;;;11.10;;
8413;SDS011;4244;48.684;9.028;2023-09-12T02:22:50;12.23;;;10.93;;
8413;SDS011;4244;48.684;9.028;2023-09-12T02:25:16;13.43;;;12.13;;
8413;SDS011;4244;48.684;9.028;2023-09-12T02:27:42;12.30;;;11.20;;
8413;SDS011;4244;48.684;9.028;2023-09-12T02:30:07;12.77;;;11.47;;
8413;SDS011;4244;48.684;9.028;2023-09-12T02:32:34;13.07;;;11.87;;
8413;SDS011;4244;48.684;9.028;2023-09-12T02:34:59;12.57;;;11.43;;
8413;SDS011;4244;48.684;9.028;2023-09-12T02:37:25;12.27;;;11.10;;
8413;SDS011;4244;48.684;9.028;2023-09-12T02:39:50;11.53;;;10.43;;
8413;SDS011;4244;48.684;9.028;2023-09-12T02:42:16;11.20;;;10.20;;
8413;SDS011;4244;48.684;9.028;2023-09-12T02:44:42;12.87;;;11.63;;
8413;SDS011;4244;48.684;9.028;2023-09-12T02:47:07;13.77;;;12.57;;
8413;SDS011;4244;48.684;9.028;2023-09-12T02:52:55;12.57;;;11.27;;
8413;SDS011;4244;48.684;9.028;2023-09-12T02:55:20;11.10;;;10.03;;
8413;SDS011;4244;48.684;9.028;2023-09-12T02:57:46;12.17;;;11.07;;
8413;SDS011;4244;48.684;9.028;2023-09-12T03:00:12;12.13;;;11.13;;
8413;SDS011;4244;48.684;9.028;2023-09-12T03:02:38;13.50;;;12.30;;
8413;SDS011;4244;48.684;9.028;2023-09-12T03:05:04;12.40;;;11.17;;
8413;SDS011;4244;48.684;9.028;2023-09-12T03:07:30;12.37;;;11.00;;
8413;SDS011;4244;48.684;9.028;2023-09-12T03:09:56;12.20;;;11.00;;
8413;SDS011;4244;48.684;9.028;2023-09-12T03:12:21;12.60;;;11.60;;
8413;SDS011;4244;48.684;9.028;2023-09-12T03:14:47;13.33;;;11.93;;
8413;SDS011;4244;48.684;9.028;2023-09-12T03:17:12;13.23;;;11.97;;
8413;SDS011;4244;48.684;9.028;2023-09-12T03:19:38;13.20;;;11.83;;
8413;SDS011;4244;48.684;9.028;2023-09-12T03:22:04;14.00;;;12.67;;
8413;SDS011;4244;48.684;9.028;2023-09-12T03:24:29;12.50;;;11.17;;
8413;SDS011;4244;48.684;9.028;2023-09-12T03:26:56;14.67;;;11.23;;
8413;SDS011;4244;48.684;9.028;2023-09-12T03:29:21;12.57;;;11.40;;
8413;SDS011;4244;48.684;9.028;2023-09-12T03:31:48;13.00;;;11.80;;
8413;SDS011;4244;48.684;9.028;2023-09-12T03:34:13;12.07;;;10.83;;
8413;SDS011;4244;48.684;9.028;2023-09-12T03:36:39;11.03;;;10.03;;
8413;SDS011;4244;48.684;9.028;2023-09-12T03:39:05;12.40;;;11.10;;
8413;SDS011;4244;48.684;9.028;2023-09-12T03:41:33;11.97;;;10.87;;
8413;SDS011;4244;48.684;9.028;2023-09-12T03:43:59;13.10;;;11.90;;
8413;SDS011;4244;48.684;9.028;2023-09-12T03:46:25;13.33;;;12.03;;
8413;SDS011;4244;48.684;9.028;2023-09-12T03:48:51;11.60;;;10.63;;
8413;SDS011;4244;48.684;9.028;2023-09-12T03:51:16;13.03;;;11.73;;
8413;SDS011;4244;48.684;9.028;2023-09-12T03:53:42;14.33;;;11.47;;
8413;SDS011;4244;48.684;9.028;2023-09-12T03:56:08;12.80;;;10.90;;
8413;SDS011;4244;48.684;9.028;2023-09-12T03:58:37;14.10;;;12.33;;
8413;SDS011;4244;48.684;9.028;2023-09-12T04:01:04;14.57;;;12.30;;
8413;SDS011;4244;48.684;9.028;2023-09-12T04:03:29;12.63;;;11.40;;
8413;SDS011;4244;48.684;9.028;2023-09-12T04:05:55;12.93;;;11.73;;
8413;SDS011;4244;48.684;9.028;2023-09-12T04:08:20;12.53;;;11.47;;
8413;SDS011;4244;48.684;9.028;2023-09-12T04:10:46;11.97;;;10.77;;
8413;SDS011;4244;48.684;9.028;2023-09-12T04:13:12;11.57;;;10.67;;
8413;SDS011;4244;48.684;9.028;2023-09-12T04:15:38;12.70;;;11.40;;
8413;SDS011;4244;48.684;9.028;2023-09-12T04:18:04;13.70;;;12.27;;
8413;SDS011;4244;48.684;9.028;2023-09-12T04:20:30;11.97;;;10.97;;
8413;SDS011;4244;48.684;9.028;2023-09-12T04:22:55;14.07;;;12.73;;
8413;SDS011;4244;48.684;9.028;2023-09-12T04:25:21;12.37;;;11.23;;
8413;SDS011;4244;48.684;9.028;2023-09-12T04:27:47;13.03;;;11.67;;
8413;SDS011;4244;48.684;9.028;2023-09-12T04:30:12;12.53;;;11.53;;
8413;SDS011;4244;48.684;9.028;2023-09-12T04:32:38;12.57;;;11.43;;
8413;SDS011;4244;48.684;9.028;2023-09-12T04:35:04;12.03;;;11.03;;
8413;SDS011;4244;48.684;9.028;2023-09-12T04:37:30;13.93;;;12.73;;
8413;SDS011;4244;48.684;9.028;2023-09-12T04:39:56;13.23;;;11.93;;
8413;SDS011;4244;48.684;9.028;2023-09-12T04:42:22;13.40;;;12.23;;
8413;SDS011;4244;48.684;9.028;2023-09-12T04:44:47;12.30;;;11.30;;
8413;SDS011;4244;48.684;9.028;2023-09-12T04:47:13;13.63;;;12.33;;
8413;SDS011;4244;48.684;9.028;2023-09-12T04:49:39;12.57;;;11.47;;
8413;SDS011;4244;48.684;9.028;2023-09-12T04:52:05;12.50;;;11.37;;
8413;SDS011;4244;48.684;9.028;2023-09-12T04:54:31;12.80;;;11.70;;
8413;SDS011;4244;48.684;9.028;2023-09-12T04:56:57;14.20;;;12.83;;
8413;SDS011;4244;48.684;9.028;2023-09-12T04:59:22;14.30;;;13.00;;
8413;SDS011;4244;48.684;9.028;2023-09-12T05:01:48;14.13;;;12.73;;
8413;SDS011;4244;48.684;9.028;2023-09-12T05:04:14;14.40;;;12.67;;
8413;SDS011;4244;48.684;9.028;2023-09-12T05:06:40;13.30;;;11.93;;
8413;SDS011;4244;48.684;9.028;2023-09-12T05:09:06;15.27;;;13.83;;
8413;SDS011;4244;48.684;9.028;2023-09-12T05:11:34;13.57;;;12.43;;
8413;SDS011;4244;48.684;9.028;2023-09-12T05:14:00;15.00;;;13.60;;
8413;SDS011;4244;48.684;9.028;2023-09-12T05:16:28;14.33;;;13.13;;
8413;SDS011;4244;48.684;9.028;2023-09-12T05:18:54;14.10;;;12.90;;
8413;SDS011;4244;48.684;9.028;2023-09-12T05:21:20;14.97;;;13.67;;
8413;SDS011;4244;48.684;9.028;2023-09-12T05:23:45;14.83;;;13.33;;
8413;SDS011;4244;48.684;9.028;2023-09-12T05:26:11;13.40;;;12.40;;
8413;SDS011;4244;48.684;9.028;2023-09-12T05:28:37;14.30;;;13.00;;
8413;SDS011;4244;48.684;9.028;2023-09-12T05:31:03;14.43;;;13.10;;
8413;SDS011;4244;48.684;9.028;2023-09-12T05:33:28;14.23;;;13.13;;
8413;SDS011;4244;48.684;9.028;2023-09-12T05:35:54;12.83;;;11.73;;
8413;SDS011;4244;48.684;9.028;2023-09-12T05:38:20;13.40;;;12.13;;
8413;SDS011;4244;48.684;9.028;2023-09-12T05:40:46;14.90;;;13.60;;
8413;SDS011;4244;48.684;9.028;2023-09-12T05:43:15;14.50;;;13.13;;
8413;SDS011;4244;48.684;9.028;2023-09-12T05:45:41;14.77;;;13.67;;
8413;SDS011;4244;48.684;9.028;2023-09-12T05:48:07;14.53;;;13.23;;
8413;SDS011;4244;48.684;9.028;2023-09-12T05:50:34;14.10;;;12.83;;
8413;SDS011;4244;48.684;9.028;2023-09-12T05:53:01;14.33;;;13.03;;
8413;SDS011;4244;48.684;9.028;2023-09-12T05:55:27;14.00;;;12.90;;
8413;SDS011;4244;48.684;9.028;2023-09-12T05:57:53;13.63;;;12.43;;
8413;SDS011;4244;48.684;9.028;2023-09-12T06:00:20;13.47;;;12.30;;
8413;SDS011;4244;48.684;9.028;2023-09-12T06:02:46;15.20;;;13.93;;
8413;SDS011;4244;48.684;9.028;2023-09-12T06:05:14;14.90;;;13.60;;
8413;SDS011;4244;48.684;9.028;2023-09-12T06:07:40;14.60;;;13.20;;
8413;SDS011;4244;48.684;9.028;2023-09-12T06:10:06;14.00;;;12.90;;
8413;SDS011;4244;48.684;9.028;2023-09-12T06:12:33;15.47;;;13.93;;
8413;SDS011;4244;48.684;9.028;2023-09-12T06:15:01;15.33;;;13.90;;
8413;SDS011;4244;48.684;9.028;2023-09-12T06:17:30;15.77;;;14.50;;
8413;SDS011;4244;48.684;9.028;2023-09-12T06:19:56;14.60;;;13.40;;
8413;SDS011;4244;48.684;9.028;2023-09-12T06:22:21;14.57;;;13.17;;
8413;SDS011;4244;48.684;9.028;2023-09-12T06:24:50;14.40;;;12.87;;
8413;SDS011;4244;48.684;9.028;2023-09-12T06:27:16;13.50;;;11.83;;
8413;SDS011;4244;48.684;9.028;2023-09-12T06:29:44;14.30;;;12.80;;
8413;SDS011;4244;48.684;9.028;2023-09-12T06:32:13;14.10;;;12.77;;
8413;SDS011;4244;48.684;9.028;2023-09-12T06:34:42;14.40;;;13.20;;
8413;SDS011;4244;48.684;9.028;2023-09-12T06:37:08;13.80;;;12.70;;
8413;SDS011;4244;48.684;9.028;2023-09-12T06:39:34;13.90;;;12.60;;
8413;SDS011;4244;48.684;9.028;2023-09-12T06:41:59;14.37;;;13.07;;
8413;SDS011;4244;48.684;9.028;2023-09-12T06:44:25;14.40;;;13.20;;
8413;SDS011;4244;48.684;9.028;2023-09-12T06:46:51;13.93;;;12.63;;
8413;SDS011;4244;48.684;9.028;2023-09-12T06:49:16;14.93;;;13.50;;
8413;SDS011;4244;48.684;9.028;2023-09-12T06:51:42;14.07;;;12.83;;
8413;SDS011;4244;48.684;9.028;2023-09-12T06:54:08;13.80;;;12.60;;
8413;SDS011;4244;48.684;9.028;2023-09-12T06:56:33;15.00;;;13.60;;
8413;SDS011;4244;48.684;9.028;2023-09-12T06:59:02;15.23;;;13.80;;
8413;SDS011;4244;48.684;9.028;2023-09-12T07:01:31;13.90;;;12.63;;
8413;SDS011;4244;48.684;9.028;2023-09-12T07:03:57;14.30;;;13.13;;
8413;SDS011;4244;48.684;9.028;2023-09-12T07:06:23;16.03;;;14.33;;
8413;SDS011;4244;48.684;9.028;2023-09-12T07:08:48;16.00;;;14.70;;
8413;SDS011;4244;48.684;9.028;2023-09-12T07:11:14;14.63;;;13.43;;
8413;SDS011;4244;48.684;9.028;2023-09-12T07:13:40;14.40;;;13.13;;
8413;SDS011;4244;48.684;9.028;2023-09-12T07:16:06;14.97;;;13.70;;
8413;SDS011;4244;48.684;9.028;2023-09-12T07:18:32;14.33;;;13.13;;
8413;SDS011;4244;48.684;9.028;2023-09-12T07:21:01;14.40;;;13.10;;
8413;SDS011;4244;48.684;9.028;2023-09-12T07:23:28;15.70;;;14.20;;
8413;SDS011;4244;48.684;9.028;2023-09-12T07:25:55;15.03;;;13.93;;
8413;SDS011;4244;48.684;9.028;2023-09-12T07:28:23;13.93;;;12.87;;
8413;SDS011;4244;48.684;9.028;2023-09-12T07:30:49;14.97;;;13.67;;
8413;SDS011;4244;48.684;9.028;2023-09-12T07:33:15;14.30;;;13.10;;
8413;SDS011;4244;48.684;9.028;2023-09-12T07:35:40;15.37;;;14.10;;
8413;SDS011;4244;48.684;9.028;2023-09-12T07:38:06;16.27;;;14.77;;
8413;SDS011;4244;48.684;9.028;2023-09-12T07:40:32;14.93;;;13.57;;
8413;SDS011;4244;48.684;9.028;2023-09-12T07:42:57;14.37;;;13.17;;
8413;SDS011;4244;48.684;9.028;2023-09-12T07:45:23;13.30;;;12.30;;
8413;SDS011;4244;48.684;9.028;2023-09-12T07:47:49;14.53;;;13.43;;
8413;SDS011;4244;48.684;9.028;2023-09-12T07:50:15;15.87;;;14.60;;
8413;SDS011;4244;48.684;9.028;2023-09-12T07:52:41;13.43;;;12.33;;
8413;SDS011;4244;48.684;9.028;2023-09-12T07:55:06;16.50;;;15.10;;
8413;SDS011;4244;48.684;9.028;2023-09-12T07:57:33;14.13;;;13.03;;
8413;SDS011;4244;48.684;9.028;2023-09-12T07:59:59;16.47;;;14.87;;
8413;SDS011;4244;48.684;9.028;2023-09-12T08:02:25;13.60;;;12.40;;
8413;SDS011;4244;48.684;9.028;2023-09-12T08:04:51;14.33;;;13.10;;
8413;SDS011;4244;48.684;9.028;2023-09-12T08:07:18;15.27;;;13.87;;
8413;SDS011;4244;48.684;9.028;2023-09-12T08:09:48;15.10;;;13.90;;
8413;SDS011;4244;48.684;9.028;2023-09-12T08:12:16;15.70;;;14.30;;
8413;SDS011;4244;48.684;9.028;2023-09-12T08:14:42;13.60;;;12.60;;
8413;SDS011;4244;48.684;9.028;2023-09-12T08:17:08;14.60;;;13.40;;
8413;SDS011;4244;48.684;9.028;2023-09-12T08:19:34;15.40;;;14.13;;
8413;SDS011;4244;48.684;9.028;2023-09-12T08:21:59;14.40;;;13.20;;
8413;SDS011;4244;48.684;9.028;2023-09-12T08:24:25;14.87;;;13.57;;
8413;SDS011;4244;48.684;9.028;2023-09-12T08:26:51;14.00;;;12.93;;
8413;SDS011;4244;48.684;9.028;2023-09-12T08:29:16;13.90;;;12.90;;
8413;SDS011;4244;48.684;9.028;2023-09-12T08:31:42;14.17;;;13.00;;
8413;SDS011;4244;48.684;9.028;2023-09-12T08:34:09;14.40;;;13.17;;
8413;SDS011;4244;48.684;9.028;2023-09-12T08:36:35;14.10;;;12.90;;
8413;SDS011;4244;48.684;9.028;2023-09-12T08:39:01;14.50;;;13.33;;
8413;SDS011;4244;48.684;9.028;2023-09-12T08:41:26;14.17;;;12.97;;
8413;SDS011;4244;48.684;9.028;2023-09-12T08:43:52;14.30;;;13.30;;
8413;SDS011;4244;48.684;9.028;2023-09-12T08:46:19;14.27;;;13.07;;
8413;SDS011;4244;48.684;9.028;2023-09-12T08:48:45;14.07;;;12.57;;
8413;SDS011;4244;48.684;9.028;2023-09-12T08:51:11;13.50;;;12.43;;
8413;SDS011;4244;48.684;9.028;2023-09-12T08:53:37;13.80;;;12.70;;
8413;SDS011;4244;48.684;9.028;2023-09-12T08:56:03;14.20;;;13.00;;
8413;SDS011;4244;48.684;9.028;2023-09-12T08:58:31;14.30;;;13.00;;
8413;SDS011;4244;48.684;9.028;2023-09-12T09:00:59;15.63;;;14.40;;
8413;SDS011;4244;48.684;9.028;2023-09-12T09:03:25;14.00;;;13.00;;
8413;SDS011;4244;48.684;9.028;2023-09-12T09:05:51;14.37;;;13.20;;
8413;SDS011;4244;48.684;9.028;2023-09-12T09:08:17;14.53;;;12.87;;
8413;SDS011;4244;48.684;9.028;2023-09-12T09:10:57;14.73;;;13.40;;
8413;SDS011;4244;48.684;9.028;2023-09-12T09:13:24;14.17;;;12.93;;
8413;SDS011;4244;48.684;9.028;2023-09-12T09:16:08;14.63;;;13.20;;
8413;SDS011;4244;48.684;9.028;2023-09-12T09:18:51;13.87;;;12.60;;
8413;SDS011;4244;48.684;9.028;2023-09-12T09:21:27;12.07;;;11.17;;
8413;SDS011;4244;48.684;9.028;2023-09-12T09:24:14;12.90;;;11.80;;
8413;SDS011;4244;48.684;9.028;2023-09-12T09:26:46;11.40;;;10.50;;
8413;SDS011;4244;48.684;9.028;2023-09-12T09:29:14;12.70;;;11.60;;
8413;SDS011;4244;48.684;9.028;2023-09-12T09:31:45;13.33;;;12.30;;
8413;SDS011;4244;48.684;9.028;2023-09-12T09:34:19;12.63;;;11.60;;
8413;SDS011;4244;48.684;9.028;2023-09-12T09:36:47;12.70;;;11.70;;
8413;SDS011;4244;48.684;9.028;2023-09-12T09:39:14;11.53;;;10.63;;
8413;SDS011;4244;48.684;9.028;2023-09-12T09:41:41;13.33;;;12.13;;
8413;SDS011;4244;48.684;9.028;2023-09-12T09:44:08;13.03;;;12.07;;
8413;SDS011;4244;48.684;9.028;2023-09-12T09:46:37;11.60;;;10.70;;
8413;SDS011;4244;48.684;9.028;2023-09-12T09:49:03;12.87;;;11.37;;
8413;SDS011;4244;48.684;9.028;2023-09-12T09:51:31;12.30;;;11.20;;
8413;SDS011;4244;48.684;9.028;2023-09-12T09:53:57;12.30;;;11.30;;
8413;SDS011;4244;48.684;9.028;2023-09-12T09:56:23;12.73;;;11.83;;
8413;SDS011;4244;48.684;9.028;2023-09-12T10:01:16;13.20;;;12.00;;
8413;SDS011;4244;48.684;9.028;2023-09-12T10:04:01;12.57;;;11.47;;
8413;SDS011;4244;48.684;9.028;2023-09-12T10:06:27;11.90;;;11.00;;
8413;SDS011;4244;48.684;9.028;2023-09-12T10:08:54;12.50;;;11.60;;
8413;SDS011;4244;48.684;9.028;2023-09-12T10:11:22;13.07;;;12.07;;
8413;SDS011;4244;48.684;9.028;2023-09-12T10:13:59;12.90;;;11.90;;
8413;SDS011;4244;48.684;9.028;2023-09-12T10:18:59;13.40;;;12.30;;
8413;SDS011;4244;48.684;9.028;2023-09-12T10:21:29;13.13;;;11.93;;
8413;SDS011;4244;48.684;9.028;2023-09-12T10:23:59;12.57;;;11.40;;
8413;SDS011;4244;48.684;9.028;2023-09-12T10:26:26;12.10;;;11.10;;
8413;SDS011;4244;48.684;9.028;2023-09-12T10:28:52;12.27;;;11.20;;
8413;SDS011;4244;48.684;9.028;2023-09-12T10:31:18;13.50;;;12.20;;
8413;SDS011;4244;48.684;9.028;2023-09-12T10:33:44;12.63;;;11.50;;
8413;SDS011;4244;48.684;9.028;2023-09-12T10:36:11;12.70;;;11.73;;
8413;SDS011;4244;48.684;9.028;2023-09-12T10:38:41;11.07;;;10.20;;
8413;SDS011;4244;48.684;9.028;2023-09-12T10:41:10;11.03;;;10.03;;
8413;SDS011;4244;48.684;9.028;2023-09-12T10:43:38;13.40;;;12.30;;
8413;SDS011;4244;48.684;9.028;2023-09-12T10:46:06;11.60;;;10.50;;
8413;SDS011;4244;48.684;9.028;2023-09-12T10:48:34;11.33;;;10.47;;
8413;SDS011;4244;48.684;9.028;2023-09-12T10:51:01;9.33;;;8.70;;
8413;SDS011;4244;48.684;9.028;2023-09-12T10:53:30;9.50;;;8.70;;
8413;SDS011;4244;48.684;9.028;2023-09-12T10:55:59;17.40;;;9.70;;
8413;SDS011;4244;48.684;9.028;2023-09-12T10:58:26;9.27;;;8.40;;
8413;SDS011;4244;48.684;9.028;2023-09-12T11:03:56;8.83;;;8.13;;
8413;SDS011;4244;48.684;9.028;2023-09-12T11:06:23;9.73;;;8.77;;
8413;SDS011;4244;48.684;9.028;2023-09-12T11:12:02;10.17;;;9.10;;
8413;SDS011;4244;48.684;9.028;2023-09-12T11:14:30;9.67;;;8.87;;
8413;SDS011;4244;48.684;9.028;2023-09-12T11:19:45;10.60;;;9.80;;
8413;SDS011;4244;48.684;9.028;2023-09-12T11:24:56;10.87;;;9.97;;
8413;SDS011;4244;48.684;9.028;2023-09-12T11:27:33;10.20;;;9.40;;
8413;SDS011;4244;48.684;9.028;2023-09-12T11:30:18;11.37;;;10.47;;
8413;SDS011;4244;48.684;9.028;2023-09-12T11:32:48;10.00;;;9.17;;
8413;SDS011;4244;48.684;9.028;2023-09-12T11:35:15;11.07;;;10.07;;
8413;SDS011;4244;48.684;9.028;2023-09-12T11:37:48;10.90;;;9.77;;
8413;SDS011;4244;48.684;9.028;2023-09-12T11:40:25;11.00;;;10.20;;
8413;SDS011;4244;48.684;9.028;2023-09-12T11:43:17;10.33;;;9.53;;
8413;SDS011;4244;48.684;9.028;2023-09-12T11:45:48;10.30;;;9.50;;
8413;SDS011;4244;48.684;9.028;2023-09-12T11:48:14;10.40;;;9.70;;
8413;SDS011;4244;48.684;9.028;2023-09-12T11:50:41;9.97;;;9.07;;
8413;SDS011;4244;48.684;9.028;2023-09-12T11:53:11;10.70;;;10.00;;
8413;SDS011;4244;48.684;9.028;2023-09-12T11:58:18;10.23;;;9.40;;
8413;SDS011;4244;48.684;9.028;2023-09-12T12:00:45;10.17;;;9.47;;
8413;SDS011;4244;48.684;9.028;2023-09-12T12:03:12;9.43;;;8.70;;
8413;SDS011;4244;48.684;9.028;2023-09-12T12:05:39;9.67;;;8.97;;
8413;SDS011;4244;48.684;9.028;2023-09-12T12:08:06;9.43;;;8.60;;
8413;SDS011;4244;48.684;9.028;2023-09-12T12:10:33;9.70;;;8.80;;
8413;SDS011;4244;48.684;9.028;2023-09-12T12:12:59;10.47;;;9.57;;
8413;SDS011;4244;48.684;9.028;2023-09-12T12:15:27;10.50;;;9.50;;
8413;SDS011;4244;48.684;9.028;2023-09-12T12:17:56;9.13;;;8.43;;
8413;SDS011;4244;48.684;9.028;2023-09-12T12:20:22;9.43;;;8.63;;
8413;SDS011;4244;48.684;9.028;2023-09-12T12:22:48;8.93;;;8.23;;
8413;SDS011;4244;48.684;9.028;2023-09-12T12:25:16;9.10;;;8.27;;
8413;SDS011;4244;48.684;9.028;2023-09-12T12:27:42;9.40;;;8.80;;
8413;SDS011;4244;48.684;9.028;2023-09-12T12:30:09;9.67;;;8.97;;
8413;SDS011;4244;48.684;9.028;2023-09-12T12:32:45;9.27;;;8.67;;
8413;SDS011;4244;48.684;9.028;2023-09-12T12:35:19;11.27;;;10.37;;
8413;SDS011;4244;48.684;9.028;2023-09-12T12:37:47;10.10;;;9.40;;
8413;SDS011;4244;48.684;9.028;2023-09-12T12:40:14;10.60;;;9.83;;
8413;SDS011;4244;48.684;9.028;2023-09-12T12:42:40;9.87;;;9.27;;
8413;SDS011;4244;48.684;9.028;2023-09-12T12:45:11;10.70;;;9.80;;
8413;SDS011;4244;48.684;9.028;2023-09-12T12:47:42;10.80;;;10.10;;
8413;SDS011;4244;48.684;9.028;2023-09-12T12:50:12;10.83;;;10.03;;
8413;SDS011;4244;48.684;9.028;2023-09-12T12:52:41;10.40;;;9.70;;
8413;SDS011;4244;48.684;9.028;2023-09-12T12:55:10;10.90;;;9.90;;
8413;SDS011;4244;48.684;9.028;2023-09-12T12:57:39;10.67;;;9.83;;
8413;SDS011;4244;48.684;9.028;2023-09-12T13:00:10;11.30;;;10.27;;
8413;SDS011;4244;48.684;9.028;2023-09-12T13:02:37;11.40;;;10.50;;
8413;SDS011;4244;48.684;9.028;2023-09-12T13:05:03;10.87;;;10.07;;
8413;SDS011;4244;48.684;9.028;2023-09-12T13:07:33;11.57;;;10.80;;
8413;SDS011;4244;48.684;9.028;2023-09-12T13:10:00;10.90;;;10.20;;
8413;SDS011;4244;48.684;9.028;2023-09-12T13:12:29;10.43;;;9.73;;
8413;SDS011;4244;48.684;9.028;2023-09-12T13:14:55;11.00;;;10.10;;
8413;SDS011;4244;48.684;9.028;2023-09-12T13:17:21;11.03;;;10.23;;
8413;SDS011;4244;48.684;9.028;2023-09-12T13:19:46;11.80;;;10.63;;
8413;SDS011;4244;48.684;9.028;2023-09-12T13:22:12;13.07;;;11.97;;
8413;SDS011;4244;48.684;9.028;2023-09-12T13:24:38;13.93;;;12.83;;
8413;SDS011;4244;48.684;9.028;2023-09-12T13:27:03;12.70;;;11.73;;
8413;SDS011;4244;48.684;9.028;2023-09-12T13:29:29;12.53;;;11.63;;
8413;SDS011;4244;48.684;9.028;2023-09-12T13:31:55;13.33;;;12.27;;
8413;SDS011;4244;48.684;9.028;2023-09-12T13:34:20;13.20;;;12.20;;
8413;SDS011;4244;48.684;9.028;2023-09-12T13:36:46;13.83;;;12.67;;
8413;SDS011;4244;48.684;9.028;2023-09-12T13:39:12;12.77;;;11.63;;
8413;SDS011;4244;48.684;9.028;2023-09-12T13:41:38;13.37;;;12.17;;
8413;SDS011;4244;48.684;9.028;2023-09-12T13:44:05;13.40;;;12.20;;
8413;SDS011;4244;48.684;9.028;2023-09-12T13:46:31;12.37;;;11.40;;
8413;SDS011;4244;48.684;9.028;2023-09-12T13:48:57;12.50;;;11.40;;
8413;SDS011;4244;48.684;9.028;2023-09-12T13:51:26;14.30;;;12.90;;
8413;SDS011;4244;48.684;9.028;2023-09-12T13:53:52;15.20;;;12.10;;
8413;SDS011;4244;48.684;9.028;2023-09-12T13:56:17;12.40;;;11.23;;
8413;SDS011;4244;48.684;9.028;2023-09-12T13:58:43;11.80;;;10.67;;
8413;SDS011;4244;48.684;9.028;2023-09-12T14:01:09;12.87;;;11.87;;
8413;SDS011;4244;48.684;9.028;2023-09-12T14:03:35;12.53;;;11.43;;
8413;SDS011;4244;48.684;9.028;2023-09-12T14:06:01;14.70;;;12.37;;
8413;SDS011;4244;48.684;9.028;2023-09-12T14:08:27;12.87;;;11.77;;
8413;SDS011;4244;48.684;9.028;2023-09-12T14:10:52;12.07;;;10.97;;
8413;SDS011;4244;48.684;9.028;2023-09-12T14:13:18;11.93;;;11.03;;
8413;SDS011;4244;48.684;9.028;2023-09-12T14:15:44;12.50;;;11.40;;
8413;SDS011;4244;48.684;9.028;2023-09-12T14:18:11;11.80;;;10.90;;
8413;SDS011;4244;48.684;9.028;2023-09-12T14:20:37;12.20;;;11.30;;
8413;SDS011;4244;48.684;9.028;2023-09-12T14:23:03;12.63;;;11.40;;
8413;SDS011;4244;48.684;9.028;2023-09-12T14:25:29;11.97;;;10.70;;
8413;SDS011;4244;48.684;9.028;2023-09-12T14:27:55;13.90;;;11.73;;
8413;SDS011;4244;48.684;9.028;2023-09-12T14:30:21;13.70;;;12.17;;
8413;SDS011;4244;48.684;9.028;2023-09-12T14:32:48;12.43;;;11.40;;
8413;SDS011;4244;48.684;9.028;2023-09-12T14:35:14;12.77;;;11.50;;
8413;SDS011;4244;48.684;9.028;2023-09-12T14:37:40;11.53;;;10.53;;
8413;SDS011;4244;48.684;9.028;2023-09-12T14:40:07;11.37;;;10.43;;
8413;SDS011;4244;48.684;9.028;2023-09-12T14:42:33;12.20;;;11.20;;
8413;SDS011;4244;48.684;9.028;2023-09-12T14:44:59;12.77;;;11.77;;
8413;SDS011;4244;48.684;9.028;2023-09-12T14:47:25;12.47;;;11.33;;
8413;SDS011;4244;48.684;9.028;2023-09-12T14:49:52;12.43;;;11.23;;
8413;SDS011;4244;48.684;9.028;2023-09-12T14:52:18;12.40;;;11.20;;
8413;SDS011;4244;48.684;9.028;2023-09-12T14:54:44;12.53;;;11.40;;
8413;SDS011;4244;48.684;9.028;2023-09-12T14:57:10;14.10;;;10.53;;
8413;SDS011;4244;48.684;9.028;2023-09-12T14:59:36;12.43;;;11.43;;
8413;SDS011;4244;48.684;9.028;2023-09-12T15:02:02;13.30;;;11.97;;
8413;SDS011;4244;48.684;9.028;2023-09-12T15:04:28;13.07;;;11.97;;
8413;SDS011;4244;48.684;9.028;2023-09-12T15:06:54;12.07;;;11.07;;
8413;SDS011;4244;48.684;9.028;2023-09-12T15:09:19;13.17;;;12.17;;
8413;SDS011;4244;48.684;9.028;2023-09-12T15:11:45;12.77;;;11.77;;
8413;SDS011;4244;48.684;9.028;2023-09-12T15:14:11;14.27;;;12.00;;
8413;SDS011;4244;48.684;9.028;2023-09-12T15:16:36;12.50;;;11.40;;